sensor_id;sensor_type;location;lat;lon;timestamp;pressure;altitude;pressure_sealevel;temperature;humidity
44044;BME280;29709;52.396;16.796;2023-06-10T00:02:07;101644.97;;;21.24;51.69
44044;BME280;29709;52.396;16.796;2023-06-10T00:05:21;101635.77;;;21.17;51.89
44044;BME280;29709;52.396;16.796;2023-06-10T00:08:34;101643.30;;;21.10;52.48
44044;BME280;29709;52.396;16.796;2023-06-10T00:11:47;101640.72;;;21.01;52.67
44044;BME280;29709;52.396;16.796;2023-06-10T00:15:00;101641.79;;;20.94;52.96
44044;BME280;29709;52.396;16.796;2023-06-10T00:18:13;101639.66;;;20.83;53.51
44044;BME280;29709;52.396;16.796;2023-06-10T00:21:33;101648.70;;;20.78;54.25
44044;BME280;29709;52.396;16.796;2023-06-10T00:24:52;101646.75;;;20.72;55.19
44044;BME280;29709;52.396;16.796;2023-06-10T00:28:06;101649.98;;;20.69;54.52
44044;BME280;29709;52.396;16.796;2023-06-10T00:31:19;101653.61;;;20.63;56.32
44044;BME280;29709;52.396;16.796;2023-06-10T00:34:33;101646.33;;;20.55;56.98
44044;BME280;29709;52.396;16.796;2023-06-10T00:37:48;101655.55;;;20.49;57.59
44044;BME280;29709;52.396;16.796;2023-06-10T00:41:01;101657.06;;;20.45;57.85
44044;BME280;29709;52.396;16.796;2023-06-10T00:44:15;101652.50;;;20.37;59.82
44044;BME280;29709;52.396;16.796;2023-06-10T00:47:29;101654.63;;;20.29;59.99
44044;BME280;29709;52.396;16.796;2023-06-10T00:50:43;101655.92;;;20.26;60.92
44044;BME280;29709;52.396;16.796;2023-06-10T00:53:57;101647.73;;;20.18;60.66
44044;BME280;29709;52.396;16.796;2023-06-10T00:57:11;101660.17;;;20.15;61.19
44044;BME280;29709;52.396;16.796;2023-06-10T01:00:26;101659.08;;;20.10;61.89
44044;BME280;29709;52.396;16.796;2023-06-10T01:03:44;101659.08;;;20.10;61.69
44044;BME280;29709;52.396;16.796;2023-06-10T01:10:32;101659.30;;;20.02;62.29
44044;BME280;29709;52.396;16.796;2023-06-10T01:13:50;101663.55;;;19.98;62.88
44044;BME280;29709;52.396;16.796;2023-06-10T01:17:06;101663.98;;;19.95;63.15
44044;BME280;29709;52.396;16.796;2023-06-10T01:20:19;101665.05;;;19.94;63.76
44044;BME280;29709;52.396;16.796;2023-06-10T01:23:32;101664.16;;;19.86;64.31
44044;BME280;29709;52.396;16.796;2023-06-10T01:26:48;101658.36;;;19.81;64.79
44044;BME280;29709;52.396;16.796;2023-06-10T01:30:12;101674.84;;;19.76;64.38
44044;BME280;29709;52.396;16.796;2023-06-10T01:33:31;101678.92;;;19.74;64.19
44044;BME280;29709;52.396;16.796;2023-06-10T01:36:48;101679.52;;;19.69;65.26
44044;BME280;29709;52.396;16.796;2023-06-10T01:40:02;101684.23;;;19.69;65.52
44044;BME280;29709;52.396;16.796;2023-06-10T01:43:20;101686.38;;;19.67;65.35
44044;BME280;29709;52.396;16.796;2023-06-10T01:46:33;101686.80;;;19.64;65.69
44044;BME280;29709;52.396;16.796;2023-06-10T01:49:46;101685.09;;;19.63;65.75
44044;BME280;29709;52.396;16.796;2023-06-10T01:53:00;101685.52;;;19.66;64.84
44044;BME280;29709;52.396;16.796;2023-06-10T01:56:13;101692.60;;;19.69;64.82
44044;BME280;29709;52.396;16.796;2023-06-10T01:59:31;101687.45;;;19.66;64.95
44044;BME280;29709;52.396;16.796;2023-06-10T02:02:45;101687.23;;;19.60;65.02
44044;BME280;29709;52.396;16.796;2023-06-10T02:05:58;101692.80;;;19.60;65.16
44044;BME280;29709;52.396;16.796;2023-06-10T02:09:11;101694.10;;;19.65;65.21
44044;BME280;29709;52.396;16.796;2023-06-10T02:12:24;101690.87;;;19.61;65.24
44044;BME280;29709;52.396;16.796;2023-06-10T02:15:38;101689.33;;;19.58;64.94
44044;BME280;29709;52.396;16.796;2023-06-10T02:18:51;101686.54;;;19.58;65.03
44044;BME280;29709;52.396;16.796;2023-06-10T02:22:04;101694.44;;;19.55;65.62
44044;BME280;29709;52.396;16.796;2023-06-10T02:25:18;101693.14;;;19.51;65.16
44044;BME280;29709;52.396;16.796;2023-06-10T02:28:31;101692.23;;;19.44;65.68
44044;BME280;29709;52.396;16.796;2023-06-10T02:31:44;101698.23;;;19.41;66.03
44044;BME280;29709;52.396;16.796;2023-06-10T02:34:57;101704.81;;;19.33;66.48
44044;BME280;29709;52.396;16.796;2023-06-10T02:38:14;101706.32;;;19.36;65.60
44044;BME280;29709;52.396;16.796;2023-06-10T02:41:27;101713.83;;;19.35;66.26
44044;BME280;29709;52.396;16.796;2023-06-10T02:44:40;101711.45;;;19.32;65.44
44044;BME280;29709;52.396;16.796;2023-06-10T02:47:53;101710.80;;;19.30;65.82
44044;BME280;29709;52.396;16.796;2023-06-10T02:51:08;101707.76;;;19.25;66.21
44044;BME280;29709;52.396;16.796;2023-06-10T02:54:21;101710.53;;;19.25;65.18
44044;BME280;29709;52.396;16.796;2023-06-10T02:57:35;101709.89;;;19.23;65.60
44044;BME280;29709;52.396;16.796;2023-06-10T03:00:48;101719.38;;;19.28;65.01
44044;BME280;29709;52.396;16.796;2023-06-10T03:04:06;101725.60;;;19.30;64.50
44044;BME280;29709;52.396;16.796;2023-06-10T03:07:19;101724.12;;;19.35;64.31
44044;BME280;29709;52.396;16.796;2023-06-10T03:10:33;101715.59;;;19.43;63.53
44044;BME280;29709;52.396;16.796;2023-06-10T03:13:47;101716.31;;;19.51;62.46
44044;BME280;29709;52.396;16.796;2023-06-10T03:17:00;101717.64;;;19.55;62.11
44044;BME280;29709;52.396;16.796;2023-06-10T03:20:13;101716.56;;;19.56;60.97
44044;BME280;29709;52.396;16.796;2023-06-10T03:23:29;101723.27;;;19.62;60.69
44044;BME280;29709;52.396;16.796;2023-06-10T03:26:48;101726.29;;;19.67;59.97
44044;BME280;29709;52.396;16.796;2023-06-10T03:30:01;101718.18;;;19.72;58.65
44044;BME280;29709;52.396;16.796;2023-06-10T03:33:15;101730.63;;;19.76;58.24
44044;BME280;29709;52.396;16.796;2023-06-10T03:36:29;101737.71;;;19.79;58.49
44044;BME280;29709;52.396;16.796;2023-06-10T03:39:42;101736.90;;;19.85;57.57
44044;BME280;29709;52.396;16.796;2023-06-10T03:42:56;101734.55;;;19.88;56.87
44044;BME280;29709;52.396;16.796;2023-06-10T03:46:09;101746.83;;;19.94;56.51
44044;BME280;29709;52.396;16.796;2023-06-10T03:49:23;101747.26;;;19.98;55.38
44044;BME280;29709;52.396;16.796;2023-06-10T03:52:41;101756.54;;;20.05;54.86
44044;BME280;29709;52.396;16.796;2023-06-10T03:55:54;101770.92;;;20.08;54.69
44044;BME280;29709;52.396;16.796;2023-06-10T03:59:15;101777.36;;;20.09;55.15
44044;BME280;29709;52.396;16.796;2023-06-10T04:02:28;101779.08;;;20.10;55.34
44044;BME280;29709;52.396;16.796;2023-06-10T04:05:41;101787.71;;;20.15;55.64
44044;BME280;29709;52.396;16.796;2023-06-10T04:08:55;101787.93;;;20.13;55.47
44044;BME280;29709;52.396;16.796;2023-06-10T04:12:09;101795.23;;;20.14;55.46
44044;BME280;29709;52.396;16.796;2023-06-10T04:15:23;101800.34;;;20.11;55.47
44044;BME280;29709;52.396;16.796;2023-06-10T04:18:36;101813.42;;;20.04;55.62
44044;BME280;29709;52.396;16.796;2023-06-10T04:21:49;101818.53;;;20.00;55.54
44044;BME280;29709;52.396;16.796;2023-06-10T04:25:03;101826.89;;;20.00;55.98
44044;BME280;29709;52.396;16.796;2023-06-10T04:28:16;101833.34;;;20.01;56.58
44044;BME280;29709;52.396;16.796;2023-06-10T04:31:29;101831.18;;;19.96;57.24
44044;BME280;29709;52.396;16.796;2023-06-10T04:34:42;101838.70;;;19.96;58.18
44044;BME280;29709;52.396;16.796;2023-06-10T04:37:55;101841.42;;;19.89;58.30
44044;BME280;29709;52.396;16.796;2023-06-10T04:41:09;101830.95;;;19.91;58.13
44044;BME280;29709;52.396;16.796;2023-06-10T04:44:22;101830.74;;;19.93;57.93
44044;BME280;29709;52.396;16.796;2023-06-10T04:47:35;101831.62;;;20.00;57.63
44044;BME280;29709;52.396;16.796;2023-06-10T04:50:48;101838.98;;;20.07;57.02
44044;BME280;29709;52.396;16.796;2023-06-10T04:54:02;101843.74;;;20.13;56.91
44044;BME280;29709;52.396;16.796;2023-06-10T04:57:16;101853.86;;;20.21;56.75
44044;BME280;29709;52.396;16.796;2023-06-10T05:00:29;101861.48;;;20.40;55.36
44044;BME280;29709;52.396;16.796;2023-06-10T05:03:43;101866.70;;;20.43;54.99
44044;BME280;29709;52.396;16.796;2023-06-10T05:06:56;101866.98;;;20.62;54.76
44044;BME280;29709;52.396;16.796;2023-06-10T05:10:09;101881.23;;;20.80;54.12
44044;BME280;29709;52.396;16.796;2023-06-10T05:13:24;101867.56;;;21.05;53.63
44044;BME280;29709;52.396;16.796;2023-06-10T05:16:38;101861.60;;;21.28;53.03
44044;BME280;29709;52.396;16.796;2023-06-10T05:19:51;101878.61;;;21.53;51.47
44044;BME280;29709;52.396;16.796;2023-06-10T05:23:05;101880.31;;;21.67;51.29
44044;BME280;29709;52.396;16.796;2023-06-10T05:26:19;101882.91;;;21.82;50.18
44044;BME280;29709;52.396;16.796;2023-06-10T05:29:33;101883.33;;;21.92;49.74
44044;BME280;29709;52.396;16.796;2023-06-10T05:32:46;101882.25;;;21.93;49.76
44044;BME280;29709;52.396;16.796;2023-06-10T05:36:00;101888.72;;;22.07;49.33
44044;BME280;29709;52.396;16.796;2023-06-10T05:42:38;101891.48;;;22.33;48.83
44044;BME280;29709;52.396;16.796;2023-06-10T05:45:52;101906.29;;;22.40;49.07
44044;BME280;29709;52.396;16.796;2023-06-10T05:49:05;101892.28;;;22.40;49.01
44044;BME280;29709;52.396;16.796;2023-06-10T05:52:21;101884.73;;;22.47;48.65
44044;BME280;29709;52.396;16.796;2023-06-10T05:55:35;101894.83;;;22.62;48.96
44044;BME280;29709;52.396;16.796;2023-06-10T05:58:49;101884.41;;;22.75;49.29
44044;BME280;29709;52.396;16.796;2023-06-10T06:02:02;101884.58;;;22.94;48.66
44044;BME280;29709;52.396;16.796;2023-06-10T06:05:16;101887.55;;;22.99;48.60
44044;BME280;29709;52.396;16.796;2023-06-10T06:08:29;101909.15;;;22.92;48.58
44044;BME280;29709;52.396;16.796;2023-06-10T06:11:42;101877.34;;;22.66;49.84
44044;BME280;29709;52.396;16.796;2023-06-10T06:14:56;101888.61;;;22.53;50.13
44044;BME280;29709;52.396;16.796;2023-06-10T06:18:09;101893.77;;;22.50;50.22
44044;BME280;29709;52.396;16.796;2023-06-10T06:21:22;101891.65;;;22.38;50.80
44044;BME280;29709;52.396;16.796;2023-06-10T06:24:35;101887.13;;;22.37;50.12
44044;BME280;29709;52.396;16.796;2023-06-10T06:27:48;101905.24;;;22.41;50.19
44044;BME280;29709;52.396;16.796;2023-06-10T06:34:29;101898.91;;;22.59;50.29
44044;BME280;29709;52.396;16.796;2023-06-10T06:37:42;101894.91;;;22.42;51.00
44044;BME280;29709;52.396;16.796;2023-06-10T06:40:55;101894.63;;;22.50;51.03
44044;BME280;29709;52.396;16.796;2023-06-10T06:44:08;101893.93;;;22.68;50.48
44044;BME280;29709;52.396;16.796;2023-06-10T06:47:21;101902.89;;;22.96;50.47
44044;BME280;29709;52.396;16.796;2023-06-10T06:50:35;101908.78;;;23.20;49.36
44044;BME280;29709;52.396;16.796;2023-06-10T06:53:48;101899.84;;;23.36;49.13
44044;BME280;29709;52.396;16.796;2023-06-10T06:57:07;101899.91;;;23.54;48.16
44044;BME280;29709;52.396;16.796;2023-06-10T07:00:21;101911.36;;;23.53;47.58
44044;BME280;29709;52.396;16.796;2023-06-10T07:03:34;101904.10;;;23.45;46.99
44044;BME280;29709;52.396;16.796;2023-06-10T07:06:48;101922.57;;;23.59;46.74
44044;BME280;29709;52.396;16.796;2023-06-10T07:10:02;101921.33;;;23.80;47.15
44044;BME280;29709;52.396;16.796;2023-06-10T07:13:15;101907.35;;;23.99;46.75
44044;BME280;29709;52.396;16.796;2023-06-10T07:16:28;101919.52;;;24.36;46.41
44044;BME280;29709;52.396;16.796;2023-06-10T07:19:42;101913.98;;;24.66;44.95
44044;BME280;29709;52.396;16.796;2023-06-10T07:22:56;101915.80;;;24.60;44.45
44044;BME280;29709;52.396;16.796;2023-06-10T07:26:09;101919.77;;;24.53;44.82
44044;BME280;29709;52.396;16.796;2023-06-10T07:29:25;101918.90;;;24.34;44.89
44044;BME280;29709;52.396;16.796;2023-06-10T07:32:39;101920.67;;;24.28;45.07
44044;BME280;29709;52.396;16.796;2023-06-10T07:35:52;101922.48;;;24.59;45.37
44044;BME280;29709;52.396;16.796;2023-06-10T07:39:05;101917.34;;;24.74;44.73
44044;BME280;29709;52.396;16.796;2023-06-10T07:42:20;101919.27;;;25.11;44.16
44044;BME280;29709;52.396;16.796;2023-06-10T07:45:35;101907.84;;;25.24;43.82
44044;BME280;29709;52.396;16.796;2023-06-10T07:48:48;101905.59;;;25.44;43.48
44044;BME280;29709;52.396;16.796;2023-06-10T07:52:01;101911.84;;;25.58;42.17
44044;BME280;29709;52.396;16.796;2023-06-10T07:55:14;101912.60;;;25.65;42.46
44044;BME280;29709;52.396;16.796;2023-06-10T07:58:27;101909.00;;;25.88;41.75
44044;BME280;29709;52.396;16.796;2023-06-10T08:01:40;101906.54;;;26.15;41.51
44044;BME280;29709;52.396;16.796;2023-06-10T08:04:55;101899.30;;;26.54;39.83
44044;BME280;29709;52.396;16.796;2023-06-10T08:08:11;101907.64;;;26.61;39.20
44044;BME280;29709;52.396;16.796;2023-06-10T08:11:28;101904.76;;;26.84;39.23
44044;BME280;29709;52.396;16.796;2023-06-10T08:14:42;101908.15;;;27.10;37.68
44044;BME280;29709;52.396;16.796;2023-06-10T08:17:55;101900.36;;;27.17;38.08
44044;BME280;29709;52.396;16.796;2023-06-10T08:21:09;101904.16;;;27.22;38.74
44044;BME280;29709;52.396;16.796;2023-06-10T08:24:23;101907.45;;;27.48;36.73
44044;BME280;29709;52.396;16.796;2023-06-10T08:30:07;101907.60;;;27.86;36.85
44044;BME280;29709;52.396;16.796;2023-06-10T08:33:22;101899.79;;;28.10;35.81
44044;BME280;29709;52.396;16.796;2023-06-10T08:36:35;101900.68;;;27.94;35.21
44044;BME280;29709;52.396;16.796;2023-06-10T08:39:49;101902.21;;;27.85;34.82
44044;BME280;29709;52.396;16.796;2023-06-10T08:43:07;101901.35;;;27.84;35.45
44044;BME280;29709;52.396;16.796;2023-06-10T08:46:21;101908.36;;;27.99;35.06
44044;BME280;29709;52.396;16.796;2023-06-10T08:49:38;101904.95;;;27.97;33.80
44044;BME280;29709;52.396;16.796;2023-06-10T08:52:54;101908.61;;;27.80;34.53
44044;BME280;29709;52.396;16.796;2023-06-10T08:56:11;101904.45;;;27.83;34.73
44044;BME280;29709;52.396;16.796;2023-06-10T08:59:25;101907.51;;;28.15;33.45
44044;BME280;29709;52.396;16.796;2023-06-10T09:02:39;101909.47;;;28.31;32.63
44044;BME280;29709;52.396;16.796;2023-06-10T09:05:52;101899.62;;;28.17;33.01
44044;BME280;29709;52.396;16.796;2023-06-10T09:09:09;101910.50;;;28.08;33.33
44044;BME280;29709;52.396;16.796;2023-06-10T09:12:24;101914.83;;;28.50;32.71
44044;BME280;29709;52.396;16.796;2023-06-10T09:15:37;101913.27;;;28.81;31.75
44044;BME280;29709;52.396;16.796;2023-06-10T09:18:55;101911.50;;;28.96;30.72
44044;BME280;29709;52.396;16.796;2023-06-10T09:22:09;101901.77;;;29.09;29.48
44044;BME280;29709;52.396;16.796;2023-06-10T09:25:34;101911.58;;;29.01;29.18
44044;BME280;29709;52.396;16.796;2023-06-10T09:28:48;101911.39;;;29.08;29.49
44044;BME280;29709;52.396;16.796;2023-06-10T09:32:04;101905.62;;;29.25;28.19
44044;BME280;29709;52.396;16.796;2023-06-10T09:35:17;101910.38;;;29.19;27.52
44044;BME280;29709;52.396;16.796;2023-06-10T09:38:32;101904.56;;;29.31;27.47
44044;BME280;29709;52.396;16.796;2023-06-10T09:41:46;101878.04;;;29.15;26.28
44044;BME280;29709;52.396;16.796;2023-06-10T09:44:59;101901.99;;;29.29;26.46
44044;BME280;29709;52.396;16.796;2023-06-10T09:48:12;101902.09;;;29.40;26.80
44044;BME280;29709;52.396;16.796;2023-06-10T09:51:27;101910.12;;;29.48;27.32
44044;BME280;29709;52.396;16.796;2023-06-10T09:54:40;101897.46;;;29.55;26.52
44044;BME280;29709;52.396;16.796;2023-06-10T09:57:58;101905.79;;;29.40;26.97
44044;BME280;29709;52.396;16.796;2023-06-10T10:01:13;101900.48;;;29.22;27.32
44044;BME280;29709;52.396;16.796;2023-06-10T10:04:31;101887.49;;;29.26;28.35
44044;BME280;29709;52.396;16.796;2023-06-10T10:07:45;101886.98;;;29.56;28.42
44044;BME280;29709;52.396;16.796;2023-06-10T10:10:59;101883.55;;;29.86;28.33
44044;BME280;29709;52.396;16.796;2023-06-10T10:14:13;101881.77;;;29.75;28.78
44044;BME280;29709;52.396;16.796;2023-06-10T10:17:30;101880.77;;;29.59;28.27
44044;BME280;29709;52.396;16.796;2023-06-10T10:20:47;101893.01;;;29.65;27.14
44044;BME280;29709;52.396;16.796;2023-06-10T10:24:12;101898.37;;;29.61;27.04
44044;BME280;29709;52.396;16.796;2023-06-10T10:27:31;101894.08;;;29.58;27.51
44044;BME280;29709;52.396;16.796;2023-06-10T10:30:51;101892.06;;;29.86;27.74
44044;BME280;29709;52.396;16.796;2023-06-10T10:34:13;101879.17;;;30.05;27.66
44044;BME280;29709;52.396;16.796;2023-06-10T10:37:29;101878.16;;;30.22;27.28
44044;BME280;29709;52.396;16.796;2023-06-10T10:40:45;101876.00;;;30.39;25.61
44044;BME280;29709;52.396;16.796;2023-06-10T10:43:59;101876.29;;;30.00;25.59
44044;BME280;29709;52.396;16.796;2023-06-10T10:47:13;101874.68;;;30.09;24.35
44044;BME280;29709;52.396;16.796;2023-06-10T10:50:28;101873.67;;;30.26;24.97
44044;BME280;29709;52.396;16.796;2023-06-10T10:53:43;101870.38;;;30.49;24.88
44044;BME280;29709;52.396;16.796;2023-06-10T11:00:29;101879.62;;;30.24;24.89
44044;BME280;29709;52.396;16.796;2023-06-10T11:03:44;101874.76;;;30.20;26.30
44044;BME280;29709;52.396;16.796;2023-06-10T11:07:07;101877.70;;;29.98;25.47
44044;BME280;29709;52.396;16.796;2023-06-10T11:17:20;101876.21;;;29.90;25.48
44044;BME280;29709;52.396;16.796;2023-06-10T11:23:59;101872.77;;;29.83;26.09
44044;BME280;29709;52.396;16.796;2023-06-10T11:27:22;101864.02;;;29.89;26.38
44044;BME280;29709;52.396;16.796;2023-06-10T11:30:35;101877.14;;;30.01;26.31
44044;BME280;29709;52.396;16.796;2023-06-10T11:33:53;101858.48;;;30.05;26.05
44044;BME280;29709;52.396;16.796;2023-06-10T11:37:07;101868.44;;;30.07;26.39
44044;BME280;29709;52.396;16.796;2023-06-10T11:40:20;101882.41;;;29.82;26.76
44044;BME280;29709;52.396;16.796;2023-06-10T11:43:34;101864.38;;;29.61;27.03
44044;BME280;29709;52.396;16.796;2023-06-10T11:46:48;101856.84;;;29.77;26.75
44044;BME280;29709;52.396;16.796;2023-06-10T11:50:02;101863.45;;;29.87;27.39
44044;BME280;29709;52.396;16.796;2023-06-10T11:53:16;101867.13;;;29.88;27.10
44044;BME280;29709;52.396;16.796;2023-06-10T11:56:31;101863.62;;;30.08;26.65
44044;BME280;29709;52.396;16.796;2023-06-10T11:59:44;101862.88;;;30.23;26.51
44044;BME280;29709;52.396;16.796;2023-06-10T12:02:58;101866.12;;;30.46;26.09
44044;BME280;29709;52.396;16.796;2023-06-10T12:06:11;101862.45;;;30.51;25.38
44044;BME280;29709;52.396;16.796;2023-06-10T12:09:29;101858.75;;;30.45;24.90
44044;BME280;29709;52.396;16.796;2023-06-10T12:12:43;101864.27;;;30.20;25.24
44044;BME280;29709;52.396;16.796;2023-06-10T12:19:20;101874.77;;;29.50;25.84
44044;BME280;29709;52.396;16.796;2023-06-10T12:22:38;101861.91;;;29.43;25.71
44044;BME280;29709;52.396;16.796;2023-06-10T12:25:55;101855.05;;;29.66;25.63
44044;BME280;29709;52.396;16.796;2023-06-10T12:29:18;101856.76;;;29.67;25.77
44044;BME280;29709;52.396;16.796;2023-06-10T12:32:39;101855.99;;;29.76;25.62
44044;BME280;29709;52.396;16.796;2023-06-10T12:35:53;101853.79;;;29.83;25.13
44044;BME280;29709;52.396;16.796;2023-06-10T12:39:06;101848.48;;;29.92;25.18
44044;BME280;29709;52.396;16.796;2023-06-10T12:42:22;101859.28;;;30.00;25.22
44044;BME280;29709;52.396;16.796;2023-06-10T12:45:37;101842.02;;;30.02;24.86
44044;BME280;29709;52.396;16.796;2023-06-10T12:48:52;101848.72;;;29.90;25.58
44044;BME280;29709;52.396;16.796;2023-06-10T12:52:08;101847.29;;;29.88;25.33
44044;BME280;29709;52.396;16.796;2023-06-10T12:55:24;101847.27;;;29.83;24.44
44044;BME280;29709;52.396;16.796;2023-06-10T12:58:37;101840.62;;;29.67;25.17
44044;BME280;29709;52.396;16.796;2023-06-10T13:01:51;101844.53;;;29.98;25.15
44044;BME280;29709;52.396;16.796;2023-06-10T13:05:05;101829.39;;;30.20;25.29
44044;BME280;29709;52.396;16.796;2023-06-10T13:08:18;101836.86;;;30.36;24.57
44044;BME280;29709;52.396;16.796;2023-06-10T13:11:31;101844.45;;;29.88;23.90
44044;BME280;29709;52.396;16.796;2023-06-10T13:14:44;101836.48;;;29.48;24.55
44044;BME280;29709;52.396;16.796;2023-06-10T13:17:58;101832.94;;;29.36;24.46
44044;BME280;29709;52.396;16.796;2023-06-10T13:21:11;101819.82;;;29.51;24.77
44044;BME280;29709;52.396;16.796;2023-06-10T13:24:24;101835.00;;;29.72;25.43
44044;BME280;29709;52.396;16.796;2023-06-10T13:27:39;101825.02;;;29.65;25.25
44044;BME280;29709;52.396;16.796;2023-06-10T13:30:52;101838.55;;;29.57;25.33
44044;BME280;29709;52.396;16.796;2023-06-10T13:34:05;101825.02;;;29.65;25.49
44044;BME280;29709;52.396;16.796;2023-06-10T13:37:19;101832.16;;;29.72;25.56
44044;BME280;29709;52.396;16.796;2023-06-10T13:40:33;101829.36;;;29.77;24.55
44044;BME280;29709;52.396;16.796;2023-06-10T13:43:46;101827.35;;;29.73;24.07
44044;BME280;29709;52.396;16.796;2023-06-10T13:46:59;101831.82;;;29.64;23.37
44044;BME280;29709;52.396;16.796;2023-06-10T13:50:12;101825.48;;;29.51;24.18
44044;BME280;29709;52.396;16.796;2023-06-10T13:53:26;101826.80;;;29.44;23.73
44044;BME280;29709;52.396;16.796;2023-06-10T13:56:39;101814.66;;;29.48;23.87
44044;BME280;29709;52.396;16.796;2023-06-10T13:59:55;101808.84;;;29.60;24.26
44044;BME280;29709;52.396;16.796;2023-06-10T14:03:09;101818.20;;;29.60;23.96
44044;BME280;29709;52.396;16.796;2023-06-10T14:06:22;101831.82;;;29.64;22.71
44044;BME280;29709;52.396;16.796;2023-06-10T14:09:36;101817.74;;;29.47;22.77
44044;BME280;29709;52.396;16.796;2023-06-10T14:12:49;101825.96;;;29.16;23.17
44044;BME280;29709;52.396;16.796;2023-06-10T14:16:03;101837.89;;;29.18;24.50
44044;BME280;29709;52.396;16.796;2023-06-10T14:19:16;101821.04;;;29.33;24.41
44044;BME280;29709;52.396;16.796;2023-06-10T14:25:49;101830.02;;;29.25;21.94
44044;BME280;29709;52.396;16.796;2023-06-10T14:29:03;101824.83;;;29.17;22.63
44044;BME280;29709;52.396;16.796;2023-06-10T14:32:16;101824.35;;;29.25;22.40
44044;BME280;29709;52.396;16.796;2023-06-10T14:35:29;101830.20;;;29.14;22.74
44044;BME280;29709;52.396;16.796;2023-06-10T14:38:42;101834.89;;;29.03;22.59
44044;BME280;29709;52.396;16.796;2023-06-10T14:41:56;101834.84;;;28.98;22.97
44044;BME280;29709;52.396;16.796;2023-06-10T14:45:09;101835.00;;;29.13;23.18
44044;BME280;29709;52.396;16.796;2023-06-10T14:48:23;101835.92;;;29.19;23.65
44044;BME280;29709;52.396;16.796;2023-06-10T14:51:36;101834.45;;;29.16;22.80
44044;BME280;29709;52.396;16.796;2023-06-10T14:54:49;101839.77;;;29.08;22.58
44044;BME280;29709;52.396;16.796;2023-06-10T14:58:03;101828.34;;;28.97;21.20
44044;BME280;29709;52.396;16.796;2023-06-10T15:01:16;101834.04;;;28.81;21.94
44044;BME280;29709;52.396;16.796;2023-06-10T15:04:29;101838.66;;;28.87;22.36
44044;BME280;29709;52.396;16.796;2023-06-10T15:07:42;101820.47;;;28.83;22.19
44044;BME280;29709;52.396;16.796;2023-06-10T15:10:56;101824.38;;;28.77;22.45
44044;BME280;29709;52.396;16.796;2023-06-10T15:14:10;101828.19;;;28.87;23.01
44044;BME280;29709;52.396;16.796;2023-06-10T15:17:23;101822.71;;;29.02;22.28
44044;BME280;29709;52.396;16.796;2023-06-10T15:20:36;101825.51;;;28.97;22.10
44044;BME280;29709;52.396;16.796;2023-06-10T15:23:50;101840.48;;;28.76;22.24
44044;BME280;29709;52.396;16.796;2023-06-10T15:27:04;101832.40;;;28.63;21.94
44044;BME280;29709;52.396;16.796;2023-06-10T15:30:19;101839.77;;;28.64;21.83
44044;BME280;29709;52.396;16.796;2023-06-10T15:33:32;101839.72;;;28.59;22.20
44044;BME280;29709;52.396;16.796;2023-06-10T15:36:45;101842.28;;;28.60;21.10
44044;BME280;29709;52.396;16.796;2023-06-10T15:40:01;101845.70;;;28.40;22.57
44044;BME280;29709;52.396;16.796;2023-06-10T15:43:14;101836.90;;;28.20;21.81
44044;BME280;29709;52.396;16.796;2023-06-10T15:46:30;101839.25;;;28.06;22.27
44044;BME280;29709;52.396;16.796;2023-06-10T15:49:44;101846.13;;;27.94;22.35
44044;BME280;29709;52.396;16.796;2023-06-10T15:52:57;101841.34;;;27.94;21.99
44044;BME280;29709;52.396;16.796;2023-06-10T15:56:10;101836.34;;;28.01;21.50
44044;BME280;29709;52.396;16.796;2023-06-10T15:59:23;101847.64;;;28.01;20.65
44044;BME280;29709;52.396;16.796;2023-06-10T16:02:37;101849.18;;;27.92;20.63
44044;BME280;29709;52.396;16.796;2023-06-10T16:05:50;101850.41;;;27.79;19.37
44044;BME280;29709;52.396;16.796;2023-06-10T16:09:03;101847.80;;;27.61;19.51
44044;BME280;29709;52.396;16.796;2023-06-10T16:12:16;101840.97;;;27.57;19.96
44044;BME280;29709;52.396;16.796;2023-06-10T16:15:30;101830.37;;;27.64;19.65
44044;BME280;29709;52.396;16.796;2023-06-10T16:18:44;101849.44;;;27.57;20.04
44044;BME280;29709;52.396;16.796;2023-06-10T16:21:58;101847.99;;;27.54;19.14
44044;BME280;29709;52.396;16.796;2023-06-10T16:25:11;101845.85;;;27.45;19.18
44044;BME280;29709;52.396;16.796;2023-06-10T16:28:24;101840.62;;;27.37;19.30
44044;BME280;29709;52.396;16.796;2023-06-10T16:31:37;101852.51;;;27.39;18.77
44044;BME280;29709;52.396;16.796;2023-06-10T16:34:50;101842.84;;;27.35;19.19
44044;BME280;29709;52.396;16.796;2023-06-10T16:38:04;101842.84;;;27.35;19.65
44044;BME280;29709;52.396;16.796;2023-06-10T16:41:17;101851.16;;;27.41;20.27
44044;BME280;29709;52.396;16.796;2023-06-10T16:44:30;101851.16;;;27.41;20.53
44044;BME280;29709;52.396;16.796;2023-06-10T16:47:43;101864.58;;;27.34;20.36
44044;BME280;29709;52.396;16.796;2023-06-10T16:50:57;101870.55;;;27.21;20.17
44044;BME280;29709;52.396;16.796;2023-06-10T16:54:10;101865.45;;;27.06;20.73
44044;BME280;29709;52.396;16.796;2023-06-10T16:57:23;101872.81;;;26.95;20.89
44044;BME280;29709;52.396;16.796;2023-06-10T17:00:37;101886.84;;;26.90;20.53
44044;BME280;29709;52.396;16.796;2023-06-10T17:03:50;101876.88;;;26.88;20.42
44044;BME280;29709;52.396;16.796;2023-06-10T17:07:04;101890.56;;;26.79;20.04
44044;BME280;29709;52.396;16.796;2023-06-10T17:10:17;101885.30;;;26.71;20.39
44044;BME280;29709;52.396;16.796;2023-06-10T17:16:54;101881.25;;;26.67;21.14
44044;BME280;29709;52.396;16.796;2023-06-10T17:20:08;101887.52;;;26.69;20.94